sensor_id;sensor_type;location;lat;lon;timestamp;pressure;altitude;pressure_sealevel;temperature;humidity
40570;BME280;26270;34.428;-119.710;2023-03-04T00:00:54;100999.76;;;18.26;41.86
40570;BME280;26270;34.428;-119.710;2023-03-04T00:03:22;101002.42;;;18.27;42.44
40570;BME280;26270;34.428;-119.710;2023-03-04T00:05:51;100996.19;;;18.22;41.38
40570;BME280;26270;34.428;-119.710;2023-03-04T00:08:19;100997.47;;;18.25;41.40
40570;BME280;26270;34.428;-119.710;2023-03-04T00:10:47;100996.31;;;18.09;40.79
40570;BME280;26270;34.428;-119.710;2023-03-04T00:13:15;101001.18;;;18.03;41.23
40570;BME280;26270;34.428;-119.710;2023-03-04T00:15:44;101003.77;;;18.02;40.37
40570;BME280;26270;34.428;-119.710;2023-03-04T00:18:13;101002.95;;;17.86;40.75
40570;BME280;26270;34.428;-119.710;2023-03-04T00:20:41;100996.95;;;18.03;40.70
40570;BME280;26270;34.428;-119.710;2023-03-04T00:23:09;100986.69;;;17.83;41.04
40570;BME280;26270;34.428;-119.710;2023-03-04T00:25:38;100982.01;;;17.95;39.32
40570;BME280;26270;34.428;-119.710;2023-03-04T00:28:06;100984.21;;;17.74;40.38
40570;BME280;26270;34.428;-119.710;2023-03-04T00:30:34;100984.12;;;17.47;40.58
40570;BME280;26270;34.428;-119.710;2023-03-04T00:33:03;100988.62;;;17.46;42.15
40570;BME280;26270;34.428;-119.710;2023-03-04T00:35:31;100987.70;;;17.46;41.65
40570;BME280;26270;34.428;-119.710;2023-03-04T00:37:59;100987.05;;;17.15;42.52
40570;BME280;26270;34.428;-119.710;2023-03-04T00:40:27;100993.37;;;17.27;44.02
40570;BME280;26270;34.428;-119.710;2023-03-04T00:42:56;100999.05;;;17.10;44.60
40570;BME280;26270;34.428;-119.710;2023-03-04T00:45:24;100998.64;;;16.97;43.49
40570;BME280;26270;34.428;-119.710;2023-03-04T00:47:53;100993.99;;;16.73;43.50
40570;BME280;26270;34.428;-119.710;2023-03-04T00:50:21;100993.19;;;16.54;44.18
40570;BME280;26270;34.428;-119.710;2023-03-04T00:52:49;100994.83;;;16.81;44.03
40570;BME280;26270;34.428;-119.710;2023-03-04T00:55:18;100992.52;;;16.38;43.70
40570;BME280;26270;34.428;-119.710;2023-03-04T00:57:46;100990.14;;;16.40;43.28
40570;BME280;26270;34.428;-119.710;2023-03-04T01:00:15;100985.25;;;16.45;43.08
40570;BME280;26270;34.428;-119.710;2023-03-04T01:02:44;100987.59;;;16.28;43.88
40570;BME280;26270;34.428;-119.710;2023-03-04T01:05:13;100991.46;;;16.26;43.91
40570;BME280;26270;34.428;-119.710;2023-03-04T01:07:41;100994.79;;;16.43;43.30
40570;BME280;26270;34.428;-119.710;2023-03-04T01:10:13;100992.51;;;16.20;44.46
40570;BME280;26270;34.428;-119.710;2023-03-04T01:12:42;100989.09;;;16.02;44.66
40570;BME280;26270;34.428;-119.710;2023-03-04T01:15:12;100986.93;;;16.15;45.02
40570;BME280;26270;34.428;-119.710;2023-03-04T01:17:41;100988.16;;;16.14;44.87
40570;BME280;26270;34.428;-119.710;2023-03-04T01:20:11;100986.74;;;16.11;45.45
40570;BME280;26270;34.428;-119.710;2023-03-04T01:22:39;100978.93;;;16.23;45.76
40570;BME280;26270;34.428;-119.710;2023-03-04T01:25:09;100976.03;;;15.92;44.91
40570;BME280;26270;34.428;-119.710;2023-03-04T01:27:37;100979.67;;;15.96;45.95
40570;BME280;26270;34.428;-119.710;2023-03-04T01:30:06;100980.65;;;15.88;45.49
40570;BME280;26270;34.428;-119.710;2023-03-04T01:32:34;100983.36;;;15.89;45.34
40570;BME280;26270;34.428;-119.710;2023-03-04T01:35:03;100985.39;;;15.66;45.63
40570;BME280;26270;34.428;-119.710;2023-03-04T01:37:31;100986.11;;;15.62;46.80
40570;BME280;26270;34.428;-119.710;2023-03-04T01:40:00;100985.00;;;15.47;48.68
40570;BME280;26270;34.428;-119.710;2023-03-04T01:42:31;100983.04;;;15.33;49.19
40570;BME280;26270;34.428;-119.710;2023-03-04T01:45:00;100982.73;;;15.52;50.13
40570;BME280;26270;34.428;-119.710;2023-03-04T01:47:31;100987.61;;;15.50;49.44
40570;BME280;26270;34.428;-119.710;2023-03-04T01:50:02;100988.82;;;15.27;49.40
40570;BME280;26270;34.428;-119.710;2023-03-04T01:52:31;100995.18;;;15.25;49.97
40570;BME280;26270;34.428;-119.710;2023-03-04T01:55:00;100994.56;;;15.17;50.51
40570;BME280;26270;34.428;-119.710;2023-03-04T01:57:35;100997.78;;;15.07;50.53
40570;BME280;26270;34.428;-119.710;2023-03-04T02:00:18;100997.79;;;14.99;50.76
40570;BME280;26270;34.428;-119.710;2023-03-04T02:02:48;100992.13;;;15.05;51.48
40570;BME280;26270;34.428;-119.710;2023-03-04T02:05:17;100989.48;;;14.82;51.38
40570;BME280;26270;34.428;-119.710;2023-03-04T02:07:46;100985.84;;;14.87;51.32
40570;BME280;26270;34.428;-119.710;2023-03-04T02:10:15;100991.75;;;14.80;51.96
40570;BME280;26270;34.428;-119.710;2023-03-04T02:12:44;101003.25;;;14.76;52.30
40570;BME280;26270;34.428;-119.710;2023-03-04T02:15:13;101009.71;;;14.72;52.40
40570;BME280;26270;34.428;-119.710;2023-03-04T02:17:42;101011.20;;;14.67;52.77
40570;BME280;26270;34.428;-119.710;2023-03-04T02:20:20;101008.86;;;14.57;53.34
40570;BME280;26270;34.428;-119.710;2023-03-04T02:22:56;101014.48;;;14.50;53.94
40570;BME280;26270;34.428;-119.710;2023-03-04T02:25:32;101020.19;;;14.54;53.75
40570;BME280;26270;34.428;-119.710;2023-03-04T02:28:02;101026.63;;;14.44;53.35
40570;BME280;26270;34.428;-119.710;2023-03-04T02:30:31;101023.42;;;14.45;53.36
40570;BME280;26270;34.428;-119.710;2023-03-04T02:32:59;101024.59;;;14.36;54.50
40570;BME280;26270;34.428;-119.710;2023-03-04T02:35:28;101028.63;;;14.16;55.43
40570;BME280;26270;34.428;-119.710;2023-03-04T02:37:56;101033.57;;;14.21;55.49
40570;BME280;26270;34.428;-119.710;2023-03-04T02:40:27;101038.34;;;14.27;56.12
40570;BME280;26270;34.428;-119.710;2023-03-04T02:42:58;101039.01;;;14.10;56.79
40570;BME280;26270;34.428;-119.710;2023-03-04T02:45:40;101037.34;;;14.19;57.42
40570;BME280;26270;34.428;-119.710;2023-03-04T02:48:10;101040.09;;;14.08;58.41
40570;BME280;26270;34.428;-119.710;2023-03-04T02:50:42;101050.23;;;14.23;58.61
40570;BME280;26270;34.428;-119.710;2023-03-04T02:53:12;101063.05;;;14.11;59.14
40570;BME280;26270;34.428;-119.710;2023-03-04T02:55:40;101064.06;;;14.02;59.54
40570;BME280;26270;34.428;-119.710;2023-03-04T02:58:08;101066.85;;;14.05;60.05
40570;BME280;26270;34.428;-119.710;2023-03-04T03:00:37;101074.28;;;14.03;60.16
40570;BME280;26270;34.428;-119.710;2023-03-04T03:03:05;101069.48;;;13.93;59.80
40570;BME280;26270;34.428;-119.710;2023-03-04T03:05:34;101067.40;;;13.98;59.69
40570;BME280;26270;34.428;-119.710;2023-03-04T03:08:03;101059.93;;;13.96;59.89
40570;BME280;26270;34.428;-119.710;2023-03-04T03:10:32;101062.68;;;13.91;60.10
40570;BME280;26270;34.428;-119.710;2023-03-04T03:13:01;101063.24;;;13.79;59.93
40570;BME280;26270;34.428;-119.710;2023-03-04T03:15:30;101059.30;;;13.88;60.38
40570;BME280;26270;34.428;-119.710;2023-03-04T03:17:58;101055.45;;;13.63;60.78
40570;BME280;26270;34.428;-119.710;2023-03-04T03:20:27;101059.23;;;13.81;60.84
40570;BME280;26270;34.428;-119.710;2023-03-04T03:22:56;101063.53;;;13.72;61.41
40570;BME280;26270;34.428;-119.710;2023-03-04T03:25:24;101057.03;;;13.67;61.40
40570;BME280;26270;34.428;-119.710;2023-03-04T03:27:53;101056.20;;;13.63;61.68
40570;BME280;26270;34.428;-119.710;2023-03-04T03:30:21;101058.75;;;13.48;61.55
40570;BME280;26270;34.428;-119.710;2023-03-04T03:32:49;101052.83;;;13.58;61.71
40570;BME280;26270;34.428;-119.710;2023-03-04T03:35:18;101041.48;;;13.48;62.23
40570;BME280;26270;34.428;-119.710;2023-03-04T03:37:46;101040.78;;;13.44;62.56
40570;BME280;26270;34.428;-119.710;2023-03-04T03:40:15;101044.15;;;13.38;62.86
40570;BME280;26270;34.428;-119.710;2023-03-04T03:42:44;101042.77;;;13.42;62.61
40570;BME280;26270;34.428;-119.710;2023-03-04T03:45:12;101040.68;;;13.44;62.47
40570;BME280;26270;34.428;-119.710;2023-03-04T03:47:41;101038.92;;;13.36;62.52
40570;BME280;26270;34.428;-119.710;2023-03-04T03:50:10;101051.15;;;13.34;62.49
40570;BME280;26270;34.428;-119.710;2023-03-04T03:52:39;101057.72;;;13.21;62.94
40570;BME280;26270;34.428;-119.710;2023-03-04T03:55:08;101056.07;;;13.34;63.01
40570;BME280;26270;34.428;-119.710;2023-03-04T03:57:37;101053.75;;;13.16;63.08
40570;BME280;26270;34.428;-119.710;2023-03-04T04:00:07;101050.87;;;13.28;63.60
40570;BME280;26270;34.428;-119.710;2023-03-04T04:02:35;101063.54;;;13.19;63.74
40570;BME280;26270;34.428;-119.710;2023-03-04T04:05:04;101068.93;;;13.20;63.94
40570;BME280;26270;34.428;-119.710;2023-03-04T04:07:33;101065.00;;;13.27;63.96
40570;BME280;26270;34.428;-119.710;2023-03-04T04:10:01;101070.16;;;13.17;64.20
40570;BME280;26270;34.428;-119.710;2023-03-04T04:12:30;101076.59;;;13.06;64.63
40570;BME280;26270;34.428;-119.710;2023-03-04T04:14:58;101077.69;;;13.03;64.77
40570;BME280;26270;34.428;-119.710;2023-03-04T04:17:26;101077.47;;;12.98;65.09
40570;BME280;26270;34.428;-119.710;2023-03-04T04:19:55;101078.85;;;12.97;64.89
40570;BME280;26270;34.428;-119.710;2023-03-04T04:22:23;101085.64;;;13.01;65.04
40570;BME280;26270;34.428;-119.710;2023-03-04T04:24:51;101087.21;;;12.90;65.51
40570;BME280;26270;34.428;-119.710;2023-03-04T04:27:20;101087.52;;;12.79;65.93
40570;BME280;26270;34.428;-119.710;2023-03-04T04:29:48;101081.36;;;13.03;65.61
40570;BME280;26270;34.428;-119.710;2023-03-04T04:32:17;101080.88;;;12.83;65.86
40570;BME280;26270;34.428;-119.710;2023-03-04T04:34:45;101081.54;;;12.73;66.23
40570;BME280;26270;34.428;-119.710;2023-03-04T04:37:14;101073.83;;;12.86;66.29
40570;BME280;26270;34.428;-119.710;2023-03-04T04:39:43;101076.25;;;12.71;66.89
40570;BME280;26270;34.428;-119.710;2023-03-04T04:42:11;101083.60;;;12.55;67.47
40570;BME280;26270;34.428;-119.710;2023-03-04T04:44:45;101085.85;;;12.65;67.40
40570;BME280;26270;34.428;-119.710;2023-03-04T04:47:13;101082.50;;;12.57;67.02
40570;BME280;26270;34.428;-119.710;2023-03-04T04:49:41;101081.23;;;12.62;67.00
40570;BME280;26270;34.428;-119.710;2023-03-04T04:52:10;101089.19;;;12.64;66.89
40570;BME280;26270;34.428;-119.710;2023-03-04T04:54:39;101091.60;;;12.65;66.98
40570;BME280;26270;34.428;-119.710;2023-03-04T04:57:07;101098.38;;;12.52;67.29
40570;BME280;26270;34.428;-119.710;2023-03-04T04:59:36;101105.06;;;12.66;67.19
40570;BME280;26270;34.428;-119.710;2023-03-04T05:03:19;101103.18;;;12.63;67.18
40570;BME280;26270;34.428;-119.710;2023-03-04T05:05:48;101104.00;;;12.65;66.65
40570;BME280;26270;34.428;-119.710;2023-03-04T05:08:17;101099.99;;;12.67;66.62
40570;BME280;26270;34.428;-119.710;2023-03-04T05:10:45;101100.36;;;12.62;67.31
40570;BME280;26270;34.428;-119.710;2023-03-04T05:13:13;101107.69;;;12.59;67.50
40570;BME280;26270;34.428;-119.710;2023-03-04T05:15:41;101111.28;;;12.69;67.37
40570;BME280;26270;34.428;-119.710;2023-03-04T05:18:09;101113.11;;;12.51;67.27
40570;BME280;26270;34.428;-119.710;2023-03-04T05:20:39;101120.67;;;12.42;66.92
40570;BME280;26270;34.428;-119.710;2023-03-04T05:23:07;101125.89;;;12.47;67.49
40570;BME280;26270;34.428;-119.710;2023-03-04T05:25:36;101123.65;;;12.38;67.07
40570;BME280;26270;34.428;-119.710;2023-03-04T05:28:04;101119.20;;;12.48;68.08
40570;BME280;26270;34.428;-119.710;2023-03-04T05:30:32;101116.97;;;12.47;68.25
40570;BME280;26270;34.428;-119.710;2023-03-04T05:33:00;101120.75;;;12.09;68.71
40570;BME280;26270;34.428;-119.710;2023-03-04T05:35:28;101127.24;;;12.25;68.23
40570;BME280;26270;34.428;-119.710;2023-03-04T05:37:56;101130.83;;;12.32;68.53
40570;BME280;26270;34.428;-119.710;2023-03-04T05:40:24;101132.91;;;12.18;68.75
40570;BME280;26270;34.428;-119.710;2023-03-04T05:42:53;101135.35;;;12.26;68.31
40570;BME280;26270;34.428;-119.710;2023-03-04T05:45:22;101125.44;;;12.06;68.83
40570;BME280;26270;34.428;-119.710;2023-03-04T05:47:50;101127.01;;;11.93;69.36
40570;BME280;26270;34.428;-119.710;2023-03-04T05:50:19;101130.39;;;12.03;68.90
40570;BME280;26270;34.428;-119.710;2023-03-04T05:52:48;101133.37;;;11.96;69.14
40570;BME280;26270;34.428;-119.710;2023-03-04T05:55:17;101125.33;;;11.92;68.86
40570;BME280;26270;34.428;-119.710;2023-03-04T05:57:47;101122.94;;;12.03;68.97
40570;BME280;26270;34.428;-119.710;2023-03-04T06:00:16;101124.43;;;11.77;69.85
40570;BME280;26270;34.428;-119.710;2023-03-04T06:02:45;101121.94;;;11.88;69.36
40570;BME280;26270;34.428;-119.710;2023-03-04T06:05:14;101125.71;;;11.83;69.84
40570;BME280;26270;34.428;-119.710;2023-03-04T06:07:43;101124.82;;;11.84;70.21
40570;BME280;26270;34.428;-119.710;2023-03-04T06:10:14;101127.32;;;11.85;69.79
40570;BME280;26270;34.428;-119.710;2023-03-04T06:12:43;101127.19;;;11.67;69.56
40570;BME280;26270;34.428;-119.710;2023-03-04T06:15:12;101119.44;;;11.77;68.64
40570;BME280;26270;34.428;-119.710;2023-03-04T06:17:41;101114.38;;;11.63;69.45
40570;BME280;26270;34.428;-119.710;2023-03-04T06:20:11;101105.11;;;11.61;68.95
40570;BME280;26270;34.428;-119.710;2023-03-04T06:22:39;101101.11;;;11.67;68.57
40570;BME280;26270;34.428;-119.710;2023-03-04T06:25:09;101098.26;;;11.63;69.38
40570;BME280;26270;34.428;-119.710;2023-03-04T06:27:37;101090.87;;;11.83;68.80
40570;BME280;26270;34.428;-119.710;2023-03-04T06:30:08;101090.50;;;11.57;69.09
40570;BME280;26270;34.428;-119.710;2023-03-04T06:32:36;101085.15;;;11.50;68.69
40570;BME280;26270;34.428;-119.710;2023-03-04T06:35:05;101088.12;;;11.57;68.98
40570;BME280;26270;34.428;-119.710;2023-03-04T06:37:33;101085.71;;;11.55;69.43
40570;BME280;26270;34.428;-119.710;2023-03-04T06:40:02;101090.51;;;11.60;69.32
40570;BME280;26270;34.428;-119.710;2023-03-04T06:42:31;101085.95;;;11.26;69.75
40570;BME280;26270;34.428;-119.710;2023-03-04T06:45:00;101084.10;;;11.35;69.74
40570;BME280;26270;34.428;-119.710;2023-03-04T06:47:28;101090.77;;;11.42;68.75
40570;BME280;26270;34.428;-119.710;2023-03-04T06:49:57;101097.76;;;11.42;68.67
40570;BME280;26270;34.428;-119.710;2023-03-04T06:52:25;101101.17;;;11.54;68.83
40570;BME280;26270;34.428;-119.710;2023-03-04T06:54:53;101099.34;;;11.30;69.72
40570;BME280;26270;34.428;-119.710;2023-03-04T06:57:22;101098.25;;;11.50;69.37
40570;BME280;26270;34.428;-119.710;2023-03-04T06:59:50;101100.44;;;11.46;69.40
40570;BME280;26270;34.428;-119.710;2023-03-04T07:02:18;101098.20;;;11.38;69.49
40570;BME280;26270;34.428;-119.710;2023-03-04T07:04:47;101100.61;;;11.37;69.76
40570;BME280;26270;34.428;-119.710;2023-03-04T07:07:15;101097.58;;;11.18;70.02
40570;BME280;26270;34.428;-119.710;2023-03-04T07:09:43;101093.12;;;11.31;70.02
40570;BME280;26270;34.428;-119.710;2023-03-04T07:12:12;101092.16;;;11.09;69.74
40570;BME280;26270;34.428;-119.710;2023-03-04T07:14:40;101087.13;;;11.05;70.18
40570;BME280;26270;34.428;-119.710;2023-03-04T07:17:09;101087.35;;;11.05;69.93
40570;BME280;26270;34.428;-119.710;2023-03-04T07:19:37;101088.61;;;11.03;70.35
40570;BME280;26270;34.428;-119.710;2023-03-04T07:22:06;101087.56;;;11.04;70.35
40570;BME280;26270;34.428;-119.710;2023-03-04T07:24:33;101085.04;;;11.04;70.31
40570;BME280;26270;34.428;-119.710;2023-03-04T07:27:02;101082.26;;;11.07;69.93
40570;BME280;26270;34.428;-119.710;2023-03-04T07:29:31;101084.54;;;10.98;70.29
40570;BME280;26270;34.428;-119.710;2023-03-04T07:31:59;101084.94;;;11.05;70.28
40570;BME280;26270;34.428;-119.710;2023-03-04T07:34:28;101075.71;;;11.06;70.33
40570;BME280;26270;34.428;-119.710;2023-03-04T07:36:56;101070.49;;;11.05;70.04
40570;BME280;26270;34.428;-119.710;2023-03-04T07:39:25;101067.23;;;10.70;70.92
40570;BME280;26270;34.428;-119.710;2023-03-04T07:41:53;101062.31;;;10.85;71.13
40570;BME280;26270;34.428;-119.710;2023-03-04T07:44:21;101057.61;;;10.61;71.41
40570;BME280;26270;34.428;-119.710;2023-03-04T07:46:50;101055.84;;;10.73;71.98
40570;BME280;26270;34.428;-119.710;2023-03-04T07:49:18;101059.18;;;10.79;72.19
40570;BME280;26270;34.428;-119.710;2023-03-04T07:51:46;101063.57;;;10.92;72.35
40570;BME280;26270;34.428;-119.710;2023-03-04T07:54:14;101064.99;;;10.90;71.81
40570;BME280;26270;34.428;-119.710;2023-03-04T07:56:43;101068.89;;;10.92;72.01
40570;BME280;26270;34.428;-119.710;2023-03-04T07:59:11;101065.58;;;10.94;72.19
40570;BME280;26270;34.428;-119.710;2023-03-04T08:01:40;101062.24;;;10.77;73.06
40570;BME280;26270;34.428;-119.710;2023-03-04T08:04:08;101057.14;;;10.96;72.74
40570;BME280;26270;34.428;-119.710;2023-03-04T08:06:36;101051.93;;;10.98;71.95
40570;BME280;26270;34.428;-119.710;2023-03-04T08:09:08;101053.01;;;10.81;72.50
40570;BME280;26270;34.428;-119.710;2023-03-04T08:11:38;101053.80;;;10.91;72.93
40570;BME280;26270;34.428;-119.710;2023-03-04T08:14:07;101051.73;;;10.89;72.23
40570;BME280;26270;34.428;-119.710;2023-03-04T08:16:35;101045.57;;;10.89;71.83
40570;BME280;26270;34.428;-119.710;2023-03-04T08:19:04;101043.33;;;10.82;70.99
40570;BME280;26270;34.428;-119.710;2023-03-04T08:21:33;101043.28;;;10.79;70.70
40570;BME280;26270;34.428;-119.710;2023-03-04T08:24:02;101048.35;;;10.75;70.57
40570;BME280;26270;34.428;-119.710;2023-03-04T08:26:33;101056.84;;;10.67;70.42
40570;BME280;26270;34.428;-119.710;2023-03-04T08:29:03;101058.09;;;10.62;70.68
40570;BME280;26270;34.428;-119.710;2023-03-04T08:31:32;101057.75;;;10.60;70.95
40570;BME280;26270;34.428;-119.710;2023-03-04T08:34:01;101058.29;;;10.56;70.64
40570;BME280;26270;34.428;-119.710;2023-03-04T08:36:29;101062.88;;;10.64;71.17
40570;BME280;26270;34.428;-119.710;2023-03-04T08:38:57;101066.58;;;10.54;71.22
40570;BME280;26270;34.428;-119.710;2023-03-04T08:41:26;101069.94;;;10.29;71.97
40570;BME280;26270;34.428;-119.710;2023-03-04T08:43:54;101069.20;;;10.13;72.31
40570;BME280;26270;34.428;-119.710;2023-03-04T08:46:23;101069.58;;;10.19;72.77
40570;BME280;26270;34.428;-119.710;2023-03-04T08:48:50;101077.43;;;9.95;73.98
40570;BME280;26270;34.428;-119.710;2023-03-04T08:51:19;101075.22;;;10.20;73.56
40570;BME280;26270;34.428;-119.710;2023-03-04T08:53:48;101078.65;;;10.31;72.98
40570;BME280;26270;34.428;-119.710;2023-03-04T08:56:16;101078.76;;;10.15;73.80
40570;BME280;26270;34.428;-119.710;2023-03-04T08:58:45;101074.59;;;10.16;74.27
40570;BME280;26270;34.428;-119.710;2023-03-04T09:01:14;101075.34;;;10.28;74.28
40570;BME280;26270;34.428;-119.710;2023-03-04T09:03:42;101075.24;;;10.32;74.01
40570;BME280;26270;34.428;-119.710;2023-03-04T09:06:13;101080.97;;;10.54;73.95
40570;BME280;26270;34.428;-119.710;2023-03-04T09:08:43;101081.23;;;10.55;72.58
40570;BME280;26270;34.428;-119.710;2023-03-04T09:11:11;101081.25;;;10.36;72.96
40570;BME280;26270;34.428;-119.710;2023-03-04T09:13:40;101081.35;;;10.39;72.73
40570;BME280;26270;34.428;-119.710;2023-03-04T09:16:09;101080.56;;;10.40;72.38
40570;BME280;26270;34.428;-119.710;2023-03-04T09:18:40;101079.07;;;10.29;72.58
40570;BME280;26270;34.428;-119.710;2023-03-04T09:21:09;101083.89;;;10.09;72.82
40570;BME280;26270;34.428;-119.710;2023-03-04T09:23:38;101088.48;;;10.23;72.66
40570;BME280;26270;34.428;-119.710;2023-03-04T09:26:17;101092.99;;;10.27;72.83
40570;BME280;26270;34.428;-119.710;2023-03-04T09:28:48;101089.44;;;10.21;73.07
40570;BME280;26270;34.428;-119.710;2023-03-04T09:31:17;101085.82;;;10.00;73.49
40570;BME280;26270;34.428;-119.710;2023-03-04T09:33:45;101080.57;;;10.22;73.44
40570;BME280;26270;34.428;-119.710;2023-03-04T09:36:15;101074.03;;;10.36;73.35
40570;BME280;26270;34.428;-119.710;2023-03-04T09:38:43;101071.77;;;10.24;72.81
40570;BME280;26270;34.428;-119.710;2023-03-04T09:41:16;101064.39;;;10.26;73.02
40570;BME280;26270;34.428;-119.710;2023-03-04T09:43:47;101061.18;;;10.38;72.19
40570;BME280;26270;34.428;-119.710;2023-03-04T09:46:20;101059.13;;;10.20;72.56
40570;BME280;26270;34.428;-119.710;2023-03-04T09:48:51;101056.67;;;10.14;72.89
40570;BME280;26270;34.428;-119.710;2023-03-04T09:51:27;101045.38;;;9.83;73.17
40570;BME280;26270;34.428;-119.710;2023-03-04T09:54:05;101039.80;;;9.92;73.15
40570;BME280;26270;34.428;-119.710;2023-03-04T09:56:38;101033.32;;;9.99;73.41
40570;BME280;26270;34.428;-119.710;2023-03-04T09:59:15;101029.96;;;9.86;73.66
40570;BME280;26270;34.428;-119.710;2023-03-04T10:01:49;101029.07;;;9.73;73.45
40570;BME280;26270;34.428;-119.710;2023-03-04T10:04:29;101034.17;;;9.94;73.77
40570;BME280;26270;34.428;-119.710;2023-03-04T10:06:58;101035.16;;;9.86;73.01
40570;BME280;26270;34.428;-119.710;2023-03-04T10:09:31;101037.70;;;9.89;73.18
40570;BME280;26270;34.428;-119.710;2023-03-04T10:12:06;101040.74;;;10.00;73.68
40570;BME280;26270;34.428;-119.710;2023-03-04T10:14:43;101030.82;;;9.86;73.88
40570;BME280;26270;34.428;-119.710;2023-03-04T10:17:15;101022.56;;;9.93;75.02
40570;BME280;26270;34.428;-119.710;2023-03-04T10:19:54;101019.83;;;9.95;74.86
40570;BME280;26270;34.428;-119.710;2023-03-04T10:22:29;101017.88;;;10.07;74.92
40570;BME280;26270;34.428;-119.710;2023-03-04T10:25:12;101010.14;;;10.10;74.86
40570;BME280;26270;34.428;-119.710;2023-03-04T10:27:43;101007.53;;;10.05;74.28
40570;BME280;26270;34.428;-119.710;2023-03-04T10:30:25;101011.05;;;10.08;73.19
40570;BME280;26270;34.428;-119.710;2023-03-04T10:32:56;101012.99;;;9.86;72.92
40570;BME280;26270;34.428;-119.710;2023-03-04T10:35:30;101015.50;;;9.65;72.98
40570;BME280;26270;34.428;-119.710;2023-03-04T10:38:01;101008.19;;;9.65;72.74
40570;BME280;26270;34.428;-119.710;2023-03-04T10:40:37;100995.02;;;9.52;72.88
40570;BME280;26270;34.428;-119.710;2023-03-04T10:43:08;100989.66;;;9.79;72.84
40570;BME280;26270;34.428;-119.710;2023-03-04T10:45:40;100987.11;;;9.59;73.02
40570;BME280;26270;34.428;-119.710;2023-03-04T10:48:18;100990.63;;;9.48;72.31
40570;BME280;26270;34.428;-119.710;2023-03-04T10:50:47;101000.24;;;9.64;72.72
40570;BME280;26270;34.428;-119.710;2023-03-04T10:53:35;101008.32;;;9.46;72.97
40570;BME280;26270;34.428;-119.710;2023-03-04T10:56:30;101012.07;;;9.42;73.21
40570;BME280;26270;34.428;-119.710;2023-03-04T10:59:30;101013.83;;;9.64;73.44
40570;BME280;26270;34.428;-119.710;2023-03-04T11:02:01;101014.30;;;9.55;73.26
40570;BME280;26270;34.428;-119.710;2023-03-04T11:04:33;101009.44;;;9.49;73.34
40570;BME280;26270;34.428;-119.710;2023-03-04T11:07:02;101010.10;;;9.61;73.21
40570;BME280;26270;34.428;-119.710;2023-03-04T11:09:34;101008.50;;;9.24;73.91
40570;BME280;26270;34.428;-119.710;2023-03-04T11:12:08;101010.57;;;8.91;76.29
40570;BME280;26270;34.428;-119.710;2023-03-04T11:14:40;101013.49;;;8.97;76.79
40570;BME280;26270;34.428;-119.710;2023-03-04T11:17:20;101017.46;;;9.14;77.44
40570;BME280;26270;34.428;-119.710;2023-03-04T11:19:52;101022.27;;;9.17;76.00
40570;BME280;26270;34.428;-119.710;2023-03-04T11:22:24;101021.98;;;9.29;75.88
40570;BME280;26270;34.428;-119.710;2023-03-04T11:24:58;101012.47;;;9.34;75.79
40570;BME280;26270;34.428;-119.710;2023-03-04T11:27:40;101006.35;;;9.38;75.89
40570;BME280;26270;34.428;-119.710;2023-03-04T11:30:20;101007.23;;;9.54;75.12
40570;BME280;26270;34.428;-119.710;2023-03-04T11:32:57;101021.41;;;9.49;74.57
40570;BME280;26270;34.428;-119.710;2023-03-04T11:35:35;101016.71;;;9.68;74.28
40570;BME280;26270;34.428;-119.710;2023-03-04T11:38:12;101015.11;;;9.54;74.02
40570;BME280;26270;34.428;-119.710;2023-03-04T11:40:46;101015.39;;;9.69;73.90
40570;BME280;26270;34.428;-119.710;2023-03-04T11:43:21;101016.98;;;9.61;73.30
40570;BME280;26270;34.428;-119.710;2023-03-04T11:46:02;101020.44;;;9.36;73.54
40570;BME280;26270;34.428;-119.710;2023-03-04T11:48:46;101018.45;;;9.45;73.62
40570;BME280;26270;34.428;-119.710;2023-03-04T11:51:20;101024.40;;;9.39;72.72
40570;BME280;26270;34.428;-119.710;2023-03-04T11:53:58;101031.12;;;9.54;72.28
40570;BME280;26270;34.428;-119.710;2023-03-04T11:56:34;101035.95;;;9.65;72.68
40570;BME280;26270;34.428;-119.710;2023-03-04T11:59:39;101038.87;;;9.45;72.99
40570;BME280;26270;34.428;-119.710;2023-03-04T12:02:14;101028.66;;;9.52;73.01
40570;BME280;26270;34.428;-119.710;2023-03-04T12:05:11;101016.32;;;9.48;73.03
40570;BME280;26270;34.428;-119.710;2023-03-04T12:07:54;101000.31;;;9.50;72.67
40570;BME280;26270;34.428;-119.710;2023-03-04T12:10:29;100989.67;;;9.63;72.96
40570;BME280;26270;34.428;-119.710;2023-03-04T12:13:12;100988.76;;;9.60;73.13
40570;BME280;26270;34.428;-119.710;2023-03-04T12:15:50;101005.56;;;9.69;72.51
40570;BME280;26270;34.428;-119.710;2023-03-04T12:18:34;101008.10;;;9.36;73.49
40570;BME280;26270;34.428;-119.710;2023-03-04T12:21:16;101011.40;;;9.35;74.64
40570;BME280;26270;34.428;-119.710;2023-03-04T12:24:09;101009.35;;;9.47;74.37
40570;BME280;26270;34.428;-119.710;2023-03-04T12:26:49;101010.09;;;9.53;74.52
40570;BME280;26270;34.428;-119.710;2023-03-04T12:29:26;101008.79;;;9.66;74.54
40570;BME280;26270;34.428;-119.710;2023-03-04T12:32:02;101012.42;;;9.56;74.95
40570;BME280;26270;34.428;-119.710;2023-03-04T12:34:52;101010.21;;;9.75;74.82
40570;BME280;26270;34.428;-119.710;2023-03-04T12:37:36;101010.37;;;9.75;74.28
40570;BME280;26270;34.428;-119.710;2023-03-04T12:40:22;101010.92;;;9.79;74.63
40570;BME280;26270;34.428;-119.710;2023-03-04T12:43:04;101015.36;;;9.75;73.81